Time;durP1;ratioP1;P1;durP2;ratioP2;P2;SDS_P1;SDS_P2;PMS_P1;PMS_P2;Temp;Humidity;BMP_temperature;BMP_pressure;BME280_temperature;BME280_humidity;BME280_pressure;Samples;Min_cycle;Max_cycle;Signal;HPM_P1;HPM_P2
2024/04/16 00:01:18;;;;;;;1.60;1.17;;;6.80;99.90;;;;;;5362463;26;20011;-80
2024/04/16 00:03:44;;;;;;;1.13;1.05;;;6.80;99.90;;;;;;5373518;26;20346;-81
2024/04/16 00:06:10;;;;;;;2.95;1.30;;;6.70;99.90;;;;;;5328920;26;20014;-80
2024/04/16 00:08:36;;;;;;;2.40;1.55;;;6.80;99.90;;;;;;5337493;26;20374;-79
2024/04/16 00:11:02;;;;;;;1.67;1.30;;;6.80;99.90;;;;;;5323240;26;20016;-80
2024/04/16 00:13:28;;;;;;;1.67;1.23;;;6.80;99.90;;;;;;5362935;26;20069;-80
2024/04/16 00:15:54;;;;;;;6.00;1.75;;;6.80;99.90;;;;;;5369601;26;20008;-80
2024/04/16 00:18:20;;;;;;;3.67;1.70;;;6.80;99.90;;;;;;5374093;26;20449;-80
2024/04/16 00:20:46;;;;;;;4.28;2.20;;;6.70;99.90;;;;;;5349757;26;20056;-80
2024/04/16 00:23:11;;;;;;;3.40;1.70;;;6.70;99.90;;;;;;5346781;26;20009;-79
2024/04/16 00:25:37;;;;;;;3.55;1.70;;;6.70;99.90;;;;;;5352258;26;20000;-79
2024/04/16 00:28:03;;;;;;;5.25;1.83;;;6.60;99.90;;;;;;5364216;26;20012;-79
2024/04/16 00:30:29;;;;;;;3.45;1.73;;;6.60;99.90;;;;;;5346260;26;20410;-80
2024/04/16 00:32:55;;;;;;;4.07;1.80;;;6.60;99.90;;;;;;5346501;26;20003;-79
2024/04/16 00:35:21;;;;;;;6.07;2.30;;;6.70;99.90;;;;;;5346334;26;20341;-79
2024/04/16 00:37:46;;;;;;;3.50;1.52;;;6.70;99.90;;;;;;5346150;26;20012;-78
2024/04/16 00:40:12;;;;;;;3.65;1.70;;;6.70;99.90;;;;;;5346730;26;19997;-79
2024/04/16 00:42:38;;;;;;;4.78;2.10;;;6.80;99.90;;;;;;5346727;26;20007;-80
2024/04/16 00:45:09;;;;;;;2.55;1.67;;;6.80;99.90;;;;;;5346026;26;20001;-81
2024/04/16 00:47:35;;;;;;;3.83;1.38;;;6.90;99.90;;;;;;5316512;26;20013;-82
2024/04/16 00:50:02;;;;;;;2.60;1.88;;;6.90;99.90;;;;;;5345996;26;20005;-80
2024/04/16 00:52:28;;;;;;;2.57;1.73;;;6.90;99.90;;;;;;5346409;26;20011;-81
2024/04/16 00:54:54;;;;;;;5.00;1.88;;;6.80;99.90;;;;;;5347135;26;20001;-82
2024/04/16 00:57:20;;;;;;;3.97;1.67;;;6.80;99.90;;;;;;5346686;26;20013;-80
2024/04/16 00:59:48;;;;;;;3.58;2.22;;;6.90;99.90;;;;;;5346055;26;20450;-81
2024/04/16 01:02:14;;;;;;;4.70;1.80;;;6.80;99.90;;;;;;5346168;26;19997;-81
2024/04/16 01:04:40;;;;;;;3.03;2.05;;;6.90;99.90;;;;;;5346303;26;20456;-79
2024/04/16 01:07:06;;;;;;;4.22;1.70;;;6.90;99.90;;;;;;5333378;26;20016;-80
2024/04/16 01:09:32;;;;;;;3.28;1.65;;;6.90;99.90;;;;;;5337340;26;20007;-81
2024/04/16 01:11:58;;;;;;;3.33;1.40;;;6.90;99.90;;;;;;5347194;26;20001;-81
2024/04/16 01:14:24;;;;;;;3.37;1.53;;;6.80;99.90;;;;;;5347207;26;20001;-80
2024/04/16 01:16:50;;;;;;;2.03;1.63;;;6.80;99.90;;;;;;5328218;26;20291;-80
2024/04/16 01:19:16;;;;;;;3.50;1.90;;;6.70;99.90;;;;;;5347565;26;20079;-80
2024/04/16 01:21:41;;;;;;;4.53;1.67;;;6.60;99.90;;;;;;5347734;26;20778;-81
2024/04/16 01:24:07;;;;;;;1.90;1.45;;;6.70;99.90;;;;;;5349876;26;20000;-80
2024/04/16 01:26:33;;;;;;;4.07;1.58;;;6.70;99.90;;;;;;5353623;26;20001;-81
2024/04/16 01:28:59;;;;;;;3.05;1.70;;;6.70;99.90;;;;;;5349989;26;20428;-80
2024/04/16 01:31:25;;;;;;;5.28;1.95;;;6.70;99.90;;;;;;5381207;26;20019;-80
2024/04/16 01:33:51;;;;;;;2.70;1.67;;;6.80;99.90;;;;;;5381650;26;20012;-80
2024/04/16 01:36:17;;;;;;;1.65;1.23;;;6.80;99.90;;;;;;5382306;26;20445;-80
2024/04/16 01:38:43;;;;;;;4.13;1.60;;;6.90;99.90;;;;;;5380846;26;20077;-80
2024/04/16 01:41:08;;;;;;;1.73;1.15;;;6.90;99.90;;;;;;5349483;26;20081;-81
2024/04/16 01:43:34;;;;;;;3.33;1.70;;;6.90;99.90;;;;;;5380284;26;20036;-81
2024/04/16 01:46:00;;;;;;;5.18;1.42;;;7.00;99.90;;;;;;5380167;26;20008;-81
2024/04/16 01:48:26;;;;;;;7.38;1.45;;;7.00;99.90;;;;;;5349294;26;20445;-81
2024/04/16 01:50:51;;;;;;;1.77;1.02;;;7.00;99.90;;;;;;5380060;26;20004;-81
2024/04/16 01:53:17;;;;;;;2.55;1.48;;;7.00;99.90;;;;;;5380459;26;20004;-81
2024/04/16 01:55:43;;;;;;;4.25;2.58;;;7.00;99.90;;;;;;5380163;26;20022;-81
2024/04/16 01:58:09;;;;;;;4.80;1.52;;;7.00;99.90;;;;;;5349213;26;20008;-81
2024/04/16 02:00:35;;;;;;;4.80;2.47;;;7.00;99.90;;;;;;5379537;26;20073;-80
2024/04/16 02:03:02;;;;;;;3.55;1.65;;;7.00;99.90;;;;;;5381174;26;20054;-80
2024/04/16 02:05:28;;;;;;;;;;;7.00;99.90;;;;;;5380755;26;20012;-78
2024/04/16 02:07:54;;;;;;;2.97;1.98;;;6.90;99.90;;;;;;5362531;26;19926;-80
2024/04/16 02:10:20;;;;;;;2.20;1.55;;;6.90;99.90;;;;;;5380511;26;19996;-80
2024/04/16 02:12:46;;;;;;;4.53;2.05;;;6.90;99.90;;;;;;5348681;26;20004;-79
2024/04/16 02:15:11;;;;;;;3.47;1.80;;;6.90;99.90;;;;;;5372363;26;19996;-80
2024/04/16 02:17:37;;;;;;;2.17;1.40;;;7.00;99.90;;;;;;5363160;26;20011;-80
2024/04/16 02:20:04;;;;;;;5.10;1.90;;;6.90;99.90;;;;;;5379373;26;20337;-80
2024/04/16 02:22:30;;;;;;;3.33;1.77;;;6.90;99.90;;;;;;5380848;26;19997;-81
2024/04/16 02:24:56;;;;;;;4.38;1.80;;;6.90;99.90;;;;;;5379780;26;20000;-79
2024/04/16 02:27:21;;;;;;;3.45;1.95;;;6.80;99.90;;;;;;5391618;26;19995;-79
2024/04/16 02:29:47;;;;;;;3.40;1.85;;;6.90;99.90;;;;;;5362237;26;20015;-80
2024/04/16 02:32:13;;;;;;;4.00;1.80;;;6.90;99.90;;;;;;5379757;26;20010;-80
2024/04/16 02:34:39;;;;;;;3.03;1.67;;;7.00;99.90;;;;;;5380279;26;20032;-81
2024/04/16 02:37:05;;;;;;;2.97;1.60;;;7.00;99.90;;;;;;5379739;26;20014;-82
2024/04/16 02:39:31;;;;;;;3.90;1.90;;;7.00;99.90;;;;;;5379903;26;20445;-81
2024/04/16 02:41:59;;;;;;;1.63;1.40;;;7.10;99.90;;;;;;5379540;26;20007;-80
2024/04/16 02:44:24;;;;;;;;;;;7.10;99.90;;;;;;5380844;26;20000;-79
2024/04/16 02:46:50;;;;;;;2.80;1.52;;;7.00;99.90;;;;;;5379597;26;19999;-80
2024/04/16 02:49:16;;;;;;;6.38;2.00;;;7.00;99.90;;;;;;5379448;26;20067;-81
2024/04/16 02:51:42;;;;;;;3.55;1.55;;;7.00;99.90;;;;;;5381476;26;20008;-81
2024/04/16 02:54:08;;;;;;;6.25;2.13;;;7.00;99.90;;;;;;5380043;26;20445;-79
2024/04/16 02:56:33;;;;;;;4.30;1.77;;;7.00;99.90;;;;;;5379225;26;20011;-79
2024/04/16 02:58:59;;;;;;;2.22;1.77;;;7.00;99.90;;;;;;5347966;26;19996;-78
2024/04/16 03:01:25;;;;;;;3.00;1.83;;;7.10;99.90;;;;;;5388282;26;20007;-80
2024/04/16 03:03:55;;;;;;;4.25;1.83;;;7.10;99.90;;;;;;5392419;26;20350;-81
2024/04/16 03:06:21;;;;;;;2.83;2.00;;;7.10;99.90;;;;;;5377834;26;20031;-81
2024/04/16 03:08:50;;;;;;;3.92;1.70;;;7.10;99.90;;;;;;5364428;26;20000;-82
2024/04/16 03:11:15;;;;;;;4.05;1.75;;;7.10;99.90;;;;;;5348032;26;20441;-81
2024/04/16 03:13:41;;;;;;;4.03;1.83;;;7.20;99.90;;;;;;5382374;26;20000;-80
2024/04/16 03:16:07;;;;;;;3.85;2.40;;;7.20;99.90;;;;;;5361758;26;19997;-80
2024/04/16 03:18:33;;;;;;;6.68;2.63;;;7.10;99.90;;;;;;5379886;26;20476;-79
2024/04/16 03:21:02;;;;;;;3.72;1.48;;;7.00;99.90;;;;;;5351736;26;19996;-82
2024/04/16 03:23:28;;;;;;;8.45;1.98;;;7.10;99.90;;;;;;5382245;26;20094;-80
2024/04/16 03:25:54;;;;;;;4.72;1.73;;;7.00;99.90;;;;;;5382209;26;20448;-80
2024/04/16 03:28:20;;;;;;;4.80;1.77;;;7.00;99.90;;;;;;5382245;26;19996;-80
2024/04/16 03:30:45;;;;;;;6.22;2.08;;;7.00;99.90;;;;;;5382505;26;20010;-80
2024/04/16 03:33:11;;;;;;;10.30;1.75;;;7.00;99.90;;;;;;5382343;26;20000;-80
2024/04/16 03:35:37;;;;;;;4.40;1.55;;;7.00;99.90;;;;;;5383211;26;20076;-79
2024/04/16 03:38:03;;;;;;;5.18;1.70;;;6.90;99.90;;;;;;5382614;26;20581;-80
2024/04/16 03:40:29;;;;;;;4.97;1.77;;;6.90;99.90;;;;;;5382029;26;20000;-79
2024/04/16 03:42:55;;;;;;;3.95;1.77;;;7.00;99.90;;;;;;5381948;26;20004;-79
2024/04/16 03:45:20;;;;;;;2.42;1.30;;;7.00;99.90;;;;;;5381798;26;20014;-79
2024/04/16 03:47:46;;;;;;;3.35;1.90;;;7.20;99.90;;;;;;5381981;26;20019;-80
2024/04/16 03:50:12;;;;;;;4.03;1.63;;;7.20;99.90;;;;;;5382256;26;20010;-78
2024/04/16 03:52:38;;;;;;;2.85;1.98;;;7.30;99.90;;;;;;5382979;26;20453;-79
2024/04/16 03:55:05;;;;;;;7.82;2.15;;;7.30;99.90;;;;;;5382147;26;20010;-80
2024/04/16 03:57:31;;;;;;;6.57;1.65;;;7.30;99.90;;;;;;5381644;26;20012;-79
2024/04/16 04:02:41;;;;;;;2.95;1.85;;;7.10;99.90;;;;;;5381763;26;20015;-79
2024/04/16 04:05:07;;;;;;;3.17;1.42;;;7.20;99.90;;;;;;5382294;26;20000;-80
2024/04/16 04:07:33;;;;;;;6.70;1.90;;;7.30;99.90;;;;;;5364906;26;20335;-78
2024/04/16 04:09:59;;;;;;;4.63;2.10;;;7.30;99.90;;;;;;5383218;26;20008;-80
2024/04/16 04:12:25;;;;;;;3.72;2.08;;;7.40;99.90;;;;;;5381774;26;20012;-79
2024/04/16 04:14:50;;;;;;;4.43;2.17;;;7.40;99.90;;;;;;5379020;26;20531;-79
2024/04/16 04:17:16;;;;;;;5.25;1.63;;;7.40;99.90;;;;;;5344931;26;20005;-79
2024/04/16 04:19:42;;;;;;;5.88;2.28;;;7.40;99.90;;;;;;5369583;26;20000;-81
2024/04/16 04:22:08;;;;;;;6.43;2.10;;;7.40;99.90;;;;;;5381510;26;20000;-80
2024/04/16 04:24:34;;;;;;;2.38;1.70;;;7.40;99.90;;;;;;5380905;26;20005;-81
2024/04/16 04:26:59;;;;;;;4.68;2.00;;;7.30;99.90;;;;;;5382959;26;20004;-80
2024/04/16 04:29:25;;;;;;;2.97;2.00;;;7.30;99.90;;;;;;5381314;26;20364;-79
2024/04/16 04:31:51;;;;;;;4.97;2.25;;;7.30;99.90;;;;;;5381565;26;20008;-80
2024/04/16 04:34:17;;;;;;;3.45;1.48;;;7.40;99.90;;;;;;5381177;26;20464;-80
2024/04/16 04:36:43;;;;;;;5.63;2.25;;;7.50;99.90;;;;;;5381759;26;20023;-80
2024/04/16 04:39:09;;;;;;;3.92;1.75;;;7.60;99.90;;;;;;5381879;26;20004;-80
2024/04/16 04:41:34;;;;;;;4.72;2.35;;;7.60;99.90;;;;;;5381458;26;20068;-78
2024/04/16 04:44:00;;;;;;;3.97;1.30;;;7.70;99.90;;;;;;5350735;26;20010;-80
2024/04/16 04:46:27;;;;;;;2.63;1.70;;;7.70;99.90;;;;;;5381110;26;20000;-80
2024/04/16 04:48:53;;;;;;;4.18;2.05;;;7.50;99.90;;;;;;5381035;26;20008;-79
2024/04/16 04:51:18;;;;;;;2.60;1.45;;;7.50;99.90;;;;;;5380954;26;20015;-79
2024/04/16 04:53:45;;;;;;;5.00;2.03;;;7.40;99.90;;;;;;5382817;26;20353;-80
2024/04/16 04:56:11;;;;;;;4.20;2.03;;;7.50;99.90;;;;;;5381919;26;20454;-79
2024/04/16 04:58:36;;;;;;;3.95;2.05;;;7.50;99.90;;;;;;5380720;26;20049;-79
2024/04/16 05:01:13;;;;;;;3.45;1.90;;;7.60;99.90;;;;;;5352967;26;20404;-79
2024/04/16 05:03:42;;;;;;;2.83;1.53;;;7.70;99.90;;;;;;5381359;26;20453;-78
2024/04/16 05:06:08;;;;;;;2.05;1.40;;;7.80;99.90;;;;;;5349861;26;19996;-80
2024/04/16 05:08:33;;;;;;;2.65;1.65;;;7.90;99.70;;;;;;5380795;26;20015;-80
2024/04/16 05:10:59;;;;;;;3.78;2.05;;;7.90;99.30;;;;;;5349253;26;20131;-80
2024/04/16 05:13:25;;;;;;;1.92;1.38;;;7.80;99.50;;;;;;5380646;26;20439;-81
2024/04/16 05:15:51;;;;;;;3.30;1.90;;;8.00;99.50;;;;;;5333379;26;20016;-80
2024/04/16 05:18:16;;;;;;;3.78;1.50;;;8.10;99.30;;;;;;5348912;26;20346;-79
2024/04/16 05:20:50;;;;;;;3.20;1.65;;;8.20;98.90;;;;;;5380869;26;20069;-79
2024/04/16 05:23:15;;;;;;;1.83;1.27;;;8.20;98.50;;;;;;5381454;26;20001;-79
2024/04/16 05:25:51;;;;;;;2.53;1.30;;;8.20;98.50;;;;;;5352485;26;20422;-80
2024/04/16 05:28:17;;;;;;;3.22;1.52;;;8.20;98.30;;;;;;5381806;26;20073;-81
2024/04/16 05:30:43;;;;;;;6.13;2.50;;;8.20;98.40;;;;;;5349741;26;20000;-80
2024/04/16 05:33:08;;;;;;;4.50;2.30;;;8.30;98.40;;;;;;5377923;26;20406;-81
2024/04/16 05:35:34;;;;;;;3.72;1.50;;;8.40;98.20;;;;;;5340405;26;20020;-81
2024/04/16 05:38:00;;;;;;;2.38;1.30;;;8.50;97.50;;;;;;5380157;26;20073;-80
2024/04/16 05:40:31;;;;;;;4.90;1.85;;;8.30;97.60;;;;;;5381499;26;20000;-81
2024/04/16 05:42:57;;;;;;;2.45;1.63;;;8.30;97.70;;;;;;5366363;26;20032;-83
2024/04/16 05:45:23;;;;;;;2.65;1.65;;;8.20;97.90;;;;;;5383022;26;20651;-81
2024/04/16 05:47:48;;;;;;;3.40;1.85;;;8.30;97.80;;;;;;5380790;26;20007;-81
2024/04/16 05:50:14;;;;;;;5.30;1.58;;;8.40;97.70;;;;;;5382009;26;20051;-82
2024/04/16 05:52:40;;;;;;;4.05;1.90;;;8.60;97.50;;;;;;5380978;26;20023;-79
2024/04/16 05:55:06;;;;;;;3.13;1.55;;;8.60;97.20;;;;;;5390340;26;20046;-83
2024/04/16 05:57:32;;;;;;;2.88;1.20;;;8.50;96.80;;;;;;5383936;26;20014;-80
2024/04/16 05:59:58;;;;;;;6.28;1.45;;;8.40;96.90;;;;;;5348345;26;20001;-81
2024/04/16 06:02:24;;;;;;;4.10;1.60;;;8.20;97.00;;;;;;5370590;26;20011;-81
2024/04/16 06:04:50;;;;;;;3.65;1.60;;;8.20;97.30;;;;;;5380295;26;20371;-81
2024/04/16 06:07:15;;;;;;;2.42;1.80;;;8.30;97.10;;;;;;5377231;26;20008;-80
2024/04/16 06:09:41;;;;;;;3.58;2.03;;;8.20;97.10;;;;;;5347217;26;20460;-79
2024/04/16 06:12:07;;;;;;;7.30;2.28;;;8.20;97.10;;;;;;5379299;26;20004;-79
2024/04/16 06:14:33;;;;;;;3.85;1.73;;;8.10;97.30;;;;;;5379121;26;20007;-82
2024/04/16 06:16:58;;;;;;;5.70;2.20;;;8.00;97.30;;;;;;5355503;26;20326;-80
2024/04/16 06:19:24;;;;;;;5.63;1.88;;;8.00;97.50;;;;;;5380445;26;20081;-83
2024/04/16 06:21:50;;;;;;;7.90;2.47;;;8.00;97.70;;;;;;5348000;26;20041;-81
2024/04/16 06:24:16;;;;;;;3.20;2.20;;;8.00;97.50;;;;;;5348645;26;20038;-83
2024/04/16 06:26:42;;;;;;;7.10;2.70;;;8.00;97.50;;;;;;5378885;26;20019;-81
2024/04/16 06:29:07;;;;;;;3.85;2.72;;;7.90;97.60;;;;;;5379290;26;20028;-81
2024/04/16 06:31:33;;;;;;;7.18;3.22;;;7.90;97.40;;;;;;5378953;26;20553;-81
2024/04/16 06:33:59;;;;;;;8.05;3.05;;;7.90;97.50;;;;;;5379753;26;20004;-80
2024/04/16 06:36:25;;;;;;;4.65;3.20;;;8.00;97.30;;;;;;5354387;26;20338;-80
2024/04/16 06:38:53;;;;;;;7.88;2.40;;;8.10;97.30;;;;;;5379422;26;20012;-79
2024/04/16 06:41:19;;;;;;;2.53;1.42;;;8.10;96.70;;;;;;5354564;26;20004;-80
2024/04/16 06:43:45;;;;;;;2.58;1.10;;;8.00;96.10;;;;;;5378662;26;20035;-82
2024/04/16 06:46:11;;;;;;;1.50;0.98;;;8.00;95.70;;;;;;5378682;26;20015;-82
2024/04/16 06:48:36;;;;;;;5.72;1.50;;;7.90;95.70;;;;;;5381876;26;20399;-81
2024/04/16 06:51:02;;;;;;;3.35;1.65;;;7.90;95.70;;;;;;5382079;26;20074;-82
2024/04/16 06:53:28;;;;;;;4.20;1.65;;;8.00;95.80;;;;;;5358097;26;20032;-82
2024/04/16 06:56:04;;;;;;;2.50;1.58;;;8.00;96.00;;;;;;5383196;26;20395;-81
2024/04/16 06:58:30;;;;;;;3.97;1.65;;;7.90;96.00;;;;;;5382124;26;20012;-81
2024/04/16 07:00:57;;;;;;;4.32;1.92;;;7.80;96.30;;;;;;5356778;26;20023;-81
2024/04/16 07:03:23;;;;;;;4.40;2.00;;;7.60;96.40;;;;;;5382407;26;20453;-81
2024/04/16 07:05:49;;;;;;;6.43;1.77;;;7.50;96.80;;;;;;5381669;26;20016;-81
2024/04/16 07:08:15;;;;;;;5.43;2.33;;;7.40;97.00;;;;;;5356994;26;20000;-82
2024/04/16 07:10:41;;;;;;;2.40;1.38;;;7.50;97.10;;;;;;5382300;26;20386;-80
2024/04/16 07:13:07;;;;;;;5.22;1.65;;;7.50;96.80;;;;;;5382230;26;20018;-82
2024/04/16 07:15:36;;;;;;;3.15;2.03;;;7.50;97.00;;;;;;5370472;26;20022;-81
2024/04/16 07:18:02;;;;;;;3.63;1.70;;;7.60;96.70;;;;;;5371777;26;20015;-82
2024/04/16 07:20:28;;;;;;;3.55;1.35;;;7.60;96.50;;;;;;5381185;26;20000;-81
2024/04/16 07:22:54;;;;;;;3.05;1.55;;;7.50;96.30;;;;;;5382765;26;20074;-81
2024/04/16 07:25:20;;;;;;;3.42;1.55;;;7.40;96.50;;;;;;5352303;26;20019;-81
2024/04/16 07:27:46;;;;;;;6.32;1.50;;;7.30;96.40;;;;;;5383645;26;20437;-80
2024/04/16 07:30:13;;;;;;;6.95;2.17;;;7.40;96.60;;;;;;5352745;26;20011;-80
2024/04/16 07:32:38;;;;;;;7.85;2.00;;;7.60;96.60;;;;;;5381640;26;20085;-80
2024/04/16 07:35:05;;;;;;;4.40;1.92;;;7.70;96.20;;;;;;5381779;26;20012;-81
2024/04/16 07:37:31;;;;;;;7.53;2.15;;;7.80;96.10;;;;;;5382143;26;20081;-82
2024/04/16 07:39:57;;;;;;;6.07;2.17;;;7.90;96.10;;;;;;5382351;26;20044;-82
2024/04/16 07:42:23;;;;;;;6.05;2.22;;;8.10;96.20;;;;;;5382416;26;20004;-81
2024/04/16 07:44:49;;;;;;;7.60;3.17;;;8.30;95.70;;;;;;5351795;26;20453;-81
2024/04/16 07:47:15;;;;;;;5.47;1.95;;;8.30;95.30;;;;;;5382002;26;20070;-80
2024/04/16 07:49:40;;;;;;;5.97;1.92;;;8.30;95.40;;;;;;5381521;26;20015;-80
2024/04/16 07:52:06;;;;;;;3.33;2.10;;;8.40;95.20;;;;;;5381369;26;20000;-81
2024/04/16 07:54:32;;;;;;;5.90;2.55;;;8.50;94.90;;;;;;5382096;26;20073;-81
2024/04/16 07:56:59;;;;;;;4.32;1.98;;;8.70;94.70;;;;;;5382308;26;20012;-81
2024/04/16 07:59:25;;;;;;;10.50;3.03;;;8.80;94.20;;;;;;5380190;26;20001;-81
2024/04/16 08:01:51;;;;;;;4.93;2.75;;;8.60;94.00;;;;;;5381971;26;20036;-81
2024/04/16 08:04:16;;;;;;;4.13;2.00;;;8.60;94.20;;;;;;5381939;26;20035;-82
2024/04/16 08:06:42;;;;;;;3.20;1.60;;;8.80;93.90;;;;;;5382125;26;20001;-81
2024/04/16 08:09:09;;;;;;;6.32;2.20;;;8.80;93.90;;;;;;5381437;26;20481;-81
2024/04/16 08:11:35;;;;;;;8.90;2.20;;;9.00;93.50;;;;;;5382078;26;20000;-80
2024/04/16 08:14:01;;;;;;;4.88;2.08;;;9.20;93.60;;;;;;5382063;26;20008;-82
2024/04/16 08:16:28;;;;;;;5.93;2.03;;;9.60;93.40;;;;;;5361073;26;20012;-81
2024/04/16 08:18:55;;;;;;;;;;;10.30;92.40;;;;;;5384207;26;20005;-81
2024/04/16 08:21:22;;;;;;;5.68;1.60;;;11.20;91.50;;;;;;5350552;26;20247;-81
2024/04/16 08:23:54;;;;;;;7.25;2.05;;;12.20;90.10;;;;;;5381153;26;19996;-81
2024/04/16 08:26:20;;;;;;;3.25;1.50;;;13.70;87.20;;;;;;5380980;26;20124;-81
2024/04/16 08:28:46;;;;;;;4.70;2.20;;;14.90;80.10;;;;;;5380837;26;20011;-81
2024/04/16 08:31:11;;;;;;;4.35;1.70;;;15.60;75.80;;;;;;5380646;26;20000;-82
2024/04/16 08:33:39;;;;;;;9.10;2.35;;;16.70;72.40;;;;;;5381057;26;20081;-80
2024/04/16 08:36:05;;;;;;;3.05;1.70;;;17.40;68.40;;;;;;5381218;26;20004;-81
2024/04/16 08:38:30;;;;;;;4.07;1.73;;;17.60;65.70;;;;;;5381394;26;20015;-82
2024/04/16 08:40:56;;;;;;;3.67;1.85;;;18.70;64.10;;;;;;5380809;26;20346;-82
2024/04/16 08:43:24;;;;;;;4.82;1.70;;;19.80;59.80;;;;;;5380944;26;20425;-82
2024/04/16 08:45:51;;;;;;;4.22;1.90;;;19.60;57.30;;;;;;5350338;26;20345;-81
2024/04/16 08:48:19;;;;;;;5.30;2.00;;;18.80;57.30;;;;;;5381084;26;20399;-82
2024/04/16 08:50:46;;;;;;;4.90;2.70;;;19.60;57.60;;;;;;5381317;26;20073;-81
2024/04/16 08:53:13;;;;;;;6.57;1.65;;;20.10;55.70;;;;;;5380544;26;20000;-81
2024/04/16 08:55:40;;;;;;;3.05;1.67;;;20.80;53.80;;;;;;5381026;26;20000;-83
2024/04/16 08:58:06;;;;;;;7.80;1.63;;;21.40;51.90;;;;;;5380980;26;20004;-81
2024/04/16 09:00:32;;;;;;;4.88;1.38;;;21.70;50.60;;;;;;5380845;26;20019;-80
2024/04/16 09:02:58;;;;;;;5.55;1.63;;;21.70;49.30;;;;;;5381798;26;20095;-82
2024/04/16 09:05:24;;;;;;;4.45;1.70;;;21.20;49.20;;;;;;5380684;26;20452;-81
2024/04/16 09:07:50;;;;;;;2.93;1.70;;;20.90;50.40;;;;;;5380533;26;20406;-81
2024/04/16 09:10:23;;;;;;;2.20;1.67;;;21.50;50.10;;;;;;5379736;26;20020;-80
2024/04/16 09:12:49;;;;;;;6.28;2.45;;;21.80;48.80;;;;;;5380151;26;20384;-81
2024/04/16 09:15:17;;;;;;;3.42;1.88;;;22.50;48.20;;;;;;5372284;26;20008;-81
2024/04/16 09:17:50;;;;;;;1.88;1.40;;;23.30;47.40;;;;;;5343566;26;20016;-81
2024/04/16 09:20:23;;;;;;;2.72;1.88;;;23.50;46.00;;;;;;5376278;26;20015;-81
2024/04/16 09:22:51;;;;;;;3.40;2.00;;;22.60;45.10;;;;;;5380439;26;20004;-81
2024/04/16 09:25:21;;;;;;;3.35;2.35;;;22.00;45.80;;;;;;5380527;26;20345;-80
2024/04/16 09:27:48;;;;;;;8.10;5.40;;;21.10;47.30;;;;;;5349354;26;20430;-81
2024/04/16 09:30:14;;;;;;;2.20;1.35;;;22.20;47.40;;;;;;5379913;26;19996;-80
2024/04/16 09:32:46;;;;;;;5.30;2.60;;;23.30;45.10;;;;;;5380033;26;20008;-81
2024/04/16 09:35:19;;;;;;;6.90;2.60;;;23.40;44.30;;;;;;5380454;26;20000;-80
2024/04/16 09:37:45;;;;;;;4.22;2.90;;;23.30;43.50;;;;;;5380427;26;20005;-81
2024/04/16 09:40:14;;;;;;;5.72;1.80;;;23.30;44.20;;;;;;5380114;26;20007;-81
2024/04/16 09:42:41;;;;;;;11.23;2.58;;;22.80;43.40;;;;;;5380185;26;20027;-81
2024/04/16 09:45:08;;;;;;;4.10;1.60;;;23.00;44.70;;;;;;5348554;26;20335;-79
2024/04/16 09:47:35;;;;;;;8.10;1.83;;;23.90;43.20;;;;;;5348461;26;20000;-81
2024/04/16 09:50:02;;;;;;;5.25;1.88;;;24.10;43.50;;;;;;5380011;26;20004;-81
2024/04/16 09:52:32;;;;;;;4.55;1.83;;;24.90;41.50;;;;;;5379792;26;20356;-81
2024/04/16 09:55:00;;;;;;;3.53;1.92;;;23.20;41.50;;;;;;5380763;26;20341;-80
2024/04/16 09:57:31;;;;;;;6.32;1.70;;;21.80;44.20;;;;;;5348871;26;20000;-81
2024/04/16 09:59:58;;;;;;;7.28;5.18;;;21.50;45.10;;;;;;5380845;26;20078;-80
2024/04/16 10:02:26;;;;;;;6.20;1.60;;;22.10;45.00;;;;;;5380121;26;20498;-81
2024/04/16 10:04:55;;;;;;;3.85;2.17;;;23.20;43.60;;;;;;5349903;26;20004;-81
2024/04/16 10:07:21;;;;;;;4.95;2.30;;;23.70;43.20;;;;;;5381151;26;20008;-80
2024/04/16 10:09:47;;;;;;;3.40;1.50;;;23.70;41.70;;;;;;5348617;26;20460;-80
2024/04/16 10:12:14;;;;;;;4.35;1.98;;;21.80;42.70;;;;;;5348997;26;20000;-81
2024/04/16 10:14:40;;;;;;;;;;;19.70;45.40;;;;;;5382992;26;20007;-81
2024/04/16 10:17:12;;;;;;;2.30;1.20;;;19.70;47.80;;;;;;5362296;26;19925;-81
2024/04/16 10:19:38;;;;;;;3.60;1.75;;;19.90;46.80;;;;;;5386007;26;19996;-81
2024/04/16 10:22:12;;;;;;;5.47;1.60;;;20.00;46.10;;;;;;5384395;26;20011;-80
2024/04/16 10:25:00;;;;;;;5.20;2.35;;;19.30;46.40;;;;;;5387942;26;20065;-81
2024/04/16 10:28:35;;;;;;;2.38;1.45;;;18.30;47.50;;;;;;5346536;26;20004;-80
2024/04/16 10:36:12;;;;;;;3.97;1.48;;;15.60;52.80;;;;;;5333782;26;20065;-81
2024/04/16 10:38:40;;;;;;;5.50;1.98;;;15.30;53.30;;;;;;5318500;26;20017;-81
2024/04/16 10:41:06;;;;;;;2.92;1.80;;;15.00;55.10;;;;;;5347999;26;20001;-80
2024/04/16 10:43:38;;;;;;;6.85;1.88;;;14.80;54.20;;;;;;5347974;26;20019;-81
2024/04/16 10:46:07;;;;;;;4.72;1.85;;;14.80;54.20;;;;;;5316623;26;20009;-81
2024/04/16 10:48:34;;;;;;;5.50;2.85;;;14.60;54.30;;;;;;5347597;26;20005;-82
2024/04/16 10:51:00;;;;;;;4.70;2.03;;;14.60;54.80;;;;;;5347309;26;20001;-81
2024/04/16 10:53:26;;;;;;;5.35;2.38;;;14.50;55.00;;;;;;5299390;27;20006;-81
2024/04/16 10:55:52;;;;;;;5.60;2.05;;;14.50;55.10;;;;;;5299827;27;20038;-81
2024/04/16 10:58:18;;;;;;;4.32;1.77;;;14.40;55.40;;;;;;5291567;27;20008;-81
2024/04/16 11:00:45;;;;;;;2.85;1.80;;;14.30;55.50;;;;;;5284354;27;20476;-81
2024/04/16 11:03:11;;;;;;;3.53;1.60;;;14.20;56.00;;;;;;5259351;27;19997;-81
2024/04/16 11:05:39;;;;;;;2.50;1.80;;;14.30;56.10;;;;;;5287355;27;19998;-80
2024/04/16 11:08:07;;;;;;;6.40;1.90;;;14.50;55.70;;;;;;5299453;27;20286;-81
2024/04/16 11:10:34;;;;;;;3.00;1.88;;;14.40;55.60;;;;;;5295808;27;20080;-81
2024/04/16 11:13:03;;;;;;;4.18;1.70;;;14.20;56.00;;;;;;5278952;27;20014;-81
2024/04/16 11:15:35;;;;;;;6.97;1.80;;;14.20;56.20;;;;;;5286580;27;20175;-80
2024/04/16 11:18:01;;;;;;;3.95;2.50;;;14.30;56.60;;;;;;5286800;27;20207;-81
2024/04/16 11:20:27;;;;;;;6.50;1.73;;;14.40;56.10;;;;;;5279405;27;20064;-79
2024/04/16 11:22:54;;;;;;;5.97;2.15;;;14.40;55.50;;;;;;5289475;27;20129;-81
2024/04/16 11:25:20;;;;;;;4.45;1.65;;;14.30;55.70;;;;;;5247027;27;20006;-82
2024/04/16 11:27:46;;;;;;;5.80;1.98;;;14.40;56.10;;;;;;5291707;27;19997;-81
2024/04/16 11:30:12;;;;;;;6.28;1.65;;;14.40;55.50;;;;;;5282295;27;20009;-80
2024/04/16 11:32:38;;;;;;;6.30;1.98;;;14.40;55.40;;;;;;5295847;26;20092;-81
2024/04/16 11:35:11;;;;;;;6.03;1.97;;;14.50;55.30;;;;;;5346360;26;20461;-81
2024/04/16 11:37:38;;;;;;;3.35;1.58;;;14.60;55.50;;;;;;5301090;26;20386;-81
2024/04/16 11:40:07;;;;;;;5.40;2.03;;;14.70;54.50;;;;;;5347081;26;20484;-81
2024/04/16 11:42:34;;;;;;;4.28;2.13;;;14.50;55.30;;;;;;5339151;26;20006;-81
2024/04/16 11:45:01;;;;;;;2.97;1.30;;;14.60;55.10;;;;;;5305883;27;20521;-81
2024/04/16 11:47:27;;;;;;;5.43;1.70;;;14.60;54.10;;;;;;5346006;26;20012;-80
2024/04/16 11:49:52;;;;;;;1.63;0.98;;;14.50;54.50;;;;;;5347435;26;20004;-81
2024/04/16 11:52:18;;;;;;;5.43;2.00;;;14.70;54.50;;;;;;5316665;26;20032;-81
2024/04/16 11:54:44;;;;;;;4.50;1.40;;;15.00;54.60;;;;;;5347593;26;20042;-80
2024/04/16 11:57:10;;;;;;;4.53;1.85;;;15.20;54.40;;;;;;5347582;26;20012;-81
2024/04/16 11:59:36;;;;;;;4.78;1.80;;;15.30;53.70;;;;;;5316909;26;20334;-81
2024/04/16 12:02:03;;;;;;;2.03;1.00;;;15.30;53.20;;;;;;5347271;26;20005;-81
2024/04/16 12:04:29;;;;;;;2.92;1.25;;;15.10;52.60;;;;;;5346991;26;20236;-81
2024/04/16 12:06:56;;;;;;;4.32;2.05;;;14.90;52.80;;;;;;5346608;26;20458;-80
2024/04/16 12:09:22;;;;;;;4.53;1.65;;;14.40;53.70;;;;;;5318858;26;20043;-80
2024/04/16 12:11:48;;;;;;;5.57;2.50;;;14.20;54.50;;;;;;5326286;26;20041;-81
2024/04/16 12:14:14;;;;;;;3.97;1.48;;;14.20;54.10;;;;;;5346540;26;20001;-79
2024/04/16 12:16:43;;;;;;;4.43;1.75;;;14.20;54.20;;;;;;5346286;26;20095;-80
2024/04/16 12:19:10;;;;;;;4.80;1.95;;;14.10;54.50;;;;;;5346661;26;20005;-81
2024/04/16 12:21:36;;;;;;;4.05;1.70;;;14.10;55.00;;;;;;5294260;26;20041;-82
2024/04/16 12:24:02;;;;;;;2.78;1.00;;;14.20;55.00;;;;;;5316202;26;20001;-81
2024/04/16 12:26:28;;;;;;;3.70;1.70;;;14.20;54.50;;;;;;5346937;26;20005;-81
2024/04/16 12:28:58;;;;;;;1.85;1.30;;;14.30;54.20;;;;;;5316161;26;20075;-81
2024/04/16 12:31:25;;;;;;;4.70;1.67;;;14.10;54.60;;;;;;5347188;26;20004;-81
2024/04/16 12:33:51;;;;;;;6.25;1.80;;;14.10;55.50;;;;;;5347312;26;20005;-81
2024/04/16 12:36:17;;;;;;;19.00;3.83;;;14.20;55.80;;;;;;5346790;26;20085;-80
2024/04/16 12:38:44;;;;;;;6.72;1.92;;;14.40;55.80;;;;;;5346833;26;20404;-80
2024/04/16 12:41:10;;;;;;;3.92;1.60;;;14.40;55.10;;;;;;5316465;26;20052;-81
2024/04/16 12:43:36;;;;;;;4.13;1.77;;;14.50;55.20;;;;;;5337490;26;20001;-80
2024/04/16 12:46:02;;;;;;;1.27;0.90;;;14.50;54.80;;;;;;5345915;26;20008;-81
2024/04/16 12:48:30;;;;;;;6.20;1.20;;;14.50;54.50;;;;;;5346654;26;20017;-80
2024/04/16 12:50:56;;;;;;;;;;;14.50;55.20;;;;;;5347363;26;20029;-81
2024/04/16 12:53:22;;;;;;;1.23;1.00;;;14.40;55.10;;;;;;5347077;26;19933;-81
2024/04/16 12:55:48;;;;;;;4.97;1.15;;;14.20;54.80;;;;;;5316200;26;20008;-81
2024/04/16 12:58:13;;;;;;;1.77;1.20;;;14.00;55.30;;;;;;5346679;26;20020;-81
2024/04/16 13:00:39;;;;;;;3.92;1.90;;;14.10;55.80;;;;;;5346665;26;20000;-82